Погода Агусадорана неделю

Порту, Португалия

25 - 31 июля
  • 25июля
    Сегодня
    +17°
    +25°
    Ясно и безоблачно
    ВремяПогодаТемператураВлажностьДавлениеВетер, м/сВероятность осадков
    01:00Ясно и безоблачно+20°C92 %760 мм5.9 м/с2 %
    04:00Практически безоблачно+19°C95 %759 мм3.0 м/с2 %
    07:00Небольшая облачность+17°C97 %760 мм2.1 м/с2 %
    10:00Небольшая облачность+19°C91 %760 мм3.5 м/с2 %
    13:00Ясно и безоблачно+24°C77 %759 мм8.4 м/с2 %
    16:00Ясно и безоблачно+24°C78 %758 мм10.5 м/с2 %
    19:00Ясно и безоблачно+22°C79 %758 мм11.0 м/с2 %
    22:00Ясно и безоблачно+20°C83 %759 мм10.2 м/с2 %
  • 26июля
    Пятница
    +16°
    +25°
    Ясно и безоблачно
    ВремяПогодаТемператураВлажностьДавлениеВетер, м/сВероятность осадков
    01:00Ясно и безоблачно+19°C85 %759 мм9.2 м/с2 %
    04:00Ясно и безоблачно+17°C87 %758 мм8.8 м/с2 %
    07:00Ясно и безоблачно+17°C87 %758 мм7.9 м/с2 %
    10:00Ясно и безоблачно+21°C82 %759 мм8.2 м/с2 %
    13:00Ясно и безоблачно+24°C82 %759 мм9.4 м/с2 %
    16:00Ясно и безоблачно+22°C87 %759 мм9.5 м/с2 %
    19:00Ясно и безоблачно+21°C88 %758 мм8.8 м/с2 %
    22:00Ясно и безоблачно+19°C90 %759 мм8.1 м/с2 %
  • 27июля
    Суббота
    +16°
    +23°
    Небольшая облачность
    ВремяПогодаТемператураВлажностьДавлениеВетер, м/сВероятность осадков
    01:00Небольшая облачность+18°C91 %759 мм8.0 м/с2 %
    04:00Практически безоблачно+17°C94 %758 мм6.2 м/с2 %
    07:00Ясно и безоблачно+17°C96 %759 мм4.0 м/с2 %
    10:00Практически безоблачно+20°C88 %759 мм4.7 м/с3 %
    13:00Небольшая облачность+23°C81 %760 мм7.9 м/с6 %
    16:00Облачно с прояснениями+22°C79 %759 мм9.7 м/с14 %
    19:00Облачно с прояснениями+21°C73 %759 мм10.3 м/с14 %
    22:00Ясно и безоблачно+20°C71 %759 мм7.5 м/с7 %
  • 28июля
    Воскресенье
    +16°
    +24°
    Облачно с прояснениями
    ВремяПогодаТемператураВлажностьДавлениеВетер, м/сВероятность осадков
    01:00Ясно и безоблачно+18°C71 %759 мм6.0 м/с5 %
    04:00Ясно и безоблачно+17°C75 %759 мм1.4 м/с5 %
    07:00Ясно и безоблачно+17°C80 %760 мм0.3 м/с5 %
    10:00Ясно и безоблачно+22°C73 %760 мм2.4 м/с2 %
    13:00Облачно с прояснениями+25°C72 %760 мм1.9 м/с3 %
    16:00Облачно с прояснениями+25°C73 %760 мм2.3 м/с2 %
    19:00Облачно с прояснениями+24°C74 %759 мм2.8 м/с2 %
    22:00Облачно с прояснениями+22°C82 %760 мм3.1 м/с2 %
Мы используем cookies
Соглашаюсь